Time;durP1;ratioP1;P1;durP2;ratioP2;P2;SDS_P1;SDS_P2;PMS_P1;PMS_P2;Temp;Humidity;BMP_temperature;BMP_pressure;BME280_temperature;BME280_humidity;BME280_pressure;Samples;Min_cycle;Max_cycle;Signal;HPM_P1;HPM_P2
2023/10/01 00:02:07;;;;;;;4.70;4.30;;;12.00;90.20;;;;;;945883;147;27330;-75
2023/10/01 00:04:35;;;;;;;5.60;3.90;;;11.90;90.30;;;;;;960475;145;27422;-74
2023/10/01 00:07:01;;;;;;;4.43;4.03;;;11.90;90.50;;;;;;958761;145;27431;-75
2023/10/01 00:09:27;;;;;;;4.90;4.10;;;11.90;90.70;;;;;;958490;145;27365;-73
2023/10/01 00:11:53;;;;;;;6.33;4.57;;;11.90;90.90;;;;;;945385;148;27404;-76
2023/10/01 00:14:21;;;;;;;5.60;3.97;;;11.90;91.00;;;;;;939292;148;27507;-72
2023/10/01 00:16:46;;;;;;;4.97;3.70;;;11.90;91.30;;;;;;956467;145;27353;-73
2023/10/01 00:19:13;;;;;;;6.27;3.90;;;11.90;91.40;;;;;;960932;145;27395;-74
2023/10/01 00:21:39;;;;;;;4.20;3.47;;;11.80;91.50;;;;;;944511;148;27479;-77
2023/10/01 00:24:06;;;;;;;4.83;3.80;;;11.80;91.70;;;;;;944706;148;27479;-74
2023/10/01 00:26:33;;;;;;;4.60;4.13;;;11.80;91.90;;;;;;936765;149;27447;-74
2023/10/01 00:28:59;;;;;;;5.03;3.53;;;11.80;92.20;;;;;;958169;145;27366;-73
2023/10/01 00:31:26;;;;;;;4.47;3.70;;;11.80;92.30;;;;;;942502;148;27471;-74
2023/10/01 00:33:52;;;;;;;5.27;4.10;;;11.80;92.40;;;;;;938846;148;27487;-75
2023/10/01 00:36:19;;;;;;;4.90;4.10;;;11.80;92.70;;;;;;938668;148;27353;-74
2023/10/01 00:38:48;;;;;;;3.83;3.53;;;11.80;92.90;;;;;;955907;145;27323;-74
2023/10/01 00:41:12;;;;;;;4.57;3.97;;;11.70;93.10;;;;;;938403;148;27381;-76
2023/10/01 00:43:39;;;;;;;7.33;4.13;;;11.70;93.30;;;;;;955406;145;27469;-75
2023/10/01 00:46:05;;;;;;;5.30;4.80;;;11.70;93.50;;;;;;940677;148;27364;-72
2023/10/01 00:48:32;;;;;;;4.40;4.00;;;11.70;93.60;;;;;;936687;149;27751;-73
2023/10/01 00:51:00;;;;;;;6.13;4.73;;;11.70;93.80;;;;;;954814;145;27292;-73
2023/10/01 00:53:25;;;;;;;4.53;4.00;;;11.70;93.90;;;;;;941470;148;27380;-74
2023/10/01 00:55:53;;;;;;;6.73;4.83;;;11.70;94.10;;;;;;956846;145;28294;-73
2023/10/01 00:58:18;;;;;;;5.57;4.03;;;11.70;94.20;;;;;;938960;148;27367;-79
2023/10/01 01:00:45;;;;;;;5.30;4.23;;;11.70;94.40;;;;;;956347;145;27296;-78
2023/10/01 01:03:18;;;;;;;4.17;3.77;;;11.60;94.60;;;;;;937756;148;27334;-79
2023/10/01 01:05:41;;;;;;;4.97;4.47;;;11.70;94.80;;;;;;957909;145;27400;-76
2023/10/01 01:08:10;;;;;;;5.07;4.57;;;11.70;94.80;;;;;;937395;148;27369;-76
2023/10/01 01:10:40;;;;;;;5.70;4.93;;;11.60;94.90;;;;;;941738;148;27566;-79
2023/10/01 01:13:06;;;;;;;5.67;5.17;;;11.60;95.10;;;;;;955429;145;27374;-80
2023/10/01 01:15:34;;;;;;;7.33;5.60;;;11.60;95.10;;;;;;940505;148;27345;-78
2023/10/01 01:18:00;;;;;;;5.47;4.90;;;11.60;95.10;;;;;;949476;147;27486;-79
2023/10/01 01:20:36;;;;;;;7.83;5.23;;;11.50;95.20;;;;;;961516;145;27306;-77
2023/10/01 01:22:54;;;;;;;5.07;4.57;;;11.50;95.30;;;;;;944603;148;27302;-77
2023/10/01 01:25:25;;;;;;;6.67;3.93;;;11.50;95.60;;;;;;948703;147;27484;-75
2023/10/01 01:27:50;;;;;;;5.13;4.53;;;11.40;95.60;;;;;;950627;147;27363;-80
2023/10/01 01:30:26;;;;;;;4.77;4.10;;;11.40;95.80;;;;;;940197;148;27370;-78
2023/10/01 01:32:49;;;;;;;8.20;4.20;;;11.40;96.00;;;;;;946365;147;27387;-80
2023/10/01 01:35:14;;;;;;;8.30;4.27;;;11.40;96.00;;;;;;942354;148;27325;-80
2023/10/01 01:37:46;;;;;;;5.83;4.43;;;11.40;96.00;;;;;;944469;147;27447;-78
2023/10/01 01:40:31;;;;;;;4.47;4.03;;;11.30;96.10;;;;;;942550;147;27373;-75
2023/10/01 01:42:56;;;;;;;6.37;4.40;;;11.30;96.20;;;;;;959556;145;27824;-78
2023/10/01 01:45:19;;;;;;;4.67;4.30;;;11.30;96.30;;;;;;959522;145;28692;-80
2023/10/01 01:47:45;;;;;;;4.77;3.93;;;11.20;96.60;;;;;;941836;148;27423;-77
2023/10/01 01:50:19;;;;;;;4.50;4.10;;;11.20;96.90;;;;;;960999;145;27428;-78
2023/10/01 01:52:50;;;;;;;5.97;4.20;;;11.20;97.20;;;;;;946222;148;27337;-80
2023/10/01 01:55:28;;;;;;;5.00;3.83;;;11.20;97.40;;;;;;942518;148;27434;-78
2023/10/01 01:58:15;;;;;;;5.30;3.43;;;11.20;97.60;;;;;;959674;145;27386;-81
2023/10/01 02:00:25;;;;;;;4.80;3.60;;;11.20;97.70;;;;;;940657;148;27357;-79
2023/10/01 02:02:59;;;;;;;4.13;3.77;;;11.20;97.90;;;;;;962414;145;27410;-78
2023/10/01 02:05:17;;;;;;;6.53;4.03;;;11.20;98.30;;;;;;953218;148;27358;-79
2023/10/01 02:07:43;;;;;;;6.17;4.30;;;11.20;98.10;;;;;;955894;145;27704;-74
2023/10/01 02:10:10;;;;;;;5.53;3.87;;;11.20;98.20;;;;;;955060;145;27489;-74
2023/10/01 02:12:38;;;;;;;4.13;3.73;;;11.20;98.40;;;;;;955348;148;27455;-73
2023/10/01 02:15:07;;;;;;;4.13;3.63;;;11.20;98.40;;;;;;954464;148;27373;-77
2023/10/01 02:17:29;;;;;;;4.53;3.53;;;11.20;98.70;;;;;;940840;147;27391;-74
2023/10/01 02:19:58;;;;;;;5.23;3.97;;;11.20;98.70;;;;;;945576;148;27372;-74
2023/10/01 02:22:24;;;;;;;5.83;3.93;;;11.20;98.80;;;;;;939571;148;27414;-73
2023/10/01 02:24:55;;;;;;;5.27;4.00;;;11.20;98.80;;;;;;947123;147;27468;-74
2023/10/01 02:27:26;;;;;;;5.03;4.53;;;11.20;98.90;;;;;;937799;148;27390;-75
2023/10/01 02:32:49;;;;;;;5.13;4.10;;;11.20;99.00;;;;;;942239;147;27452;-74
2023/10/01 02:35:34;;;;;;;4.83;4.33;;;11.20;98.90;;;;;;945076;147;27391;-75
2023/10/01 02:37:35;;;;;;;3.83;3.50;;;11.20;99.10;;;;;;949457;146;27350;-73
2023/10/01 02:40:01;;;;;;;5.77;4.63;;;11.20;99.20;;;;;;941155;148;27413;-74
2023/10/01 02:42:27;;;;;;;5.33;3.83;;;11.20;99.20;;;;;;959053;145;27341;-75
2023/10/01 02:44:53;;;;;;;4.80;3.63;;;11.10;99.20;;;;;;943587;148;27514;-75
2023/10/01 02:47:20;;;;;;;4.07;3.67;;;11.10;99.30;;;;;;959915;145;27290;-76
2023/10/01 02:49:49;;;;;;;7.20;4.03;;;11.10;99.40;;;;;;944446;148;27457;-73
2023/10/01 02:52:14;;;;;;;5.07;4.00;;;11.10;99.50;;;;;;960113;145;27366;-74
2023/10/01 02:54:40;;;;;;;5.17;4.00;;;11.10;99.60;;;;;;942603;148;27357;-74
2023/10/01 02:57:13;;;;;;;4.30;3.90;;;11.10;99.70;;;;;;946313;147;27447;-73
2023/10/01 03:00:10;;;;;;;4.73;4.23;;;11.10;99.80;;;;;;959753;145;27302;-74
2023/10/01 03:02:08;;;;;;;4.80;3.30;;;11.00;99.70;;;;;;939875;148;27377;-75
2023/10/01 03:04:33;;;;;;;8.00;4.03;;;11.00;99.90;;;;;;960335;145;27446;-73
2023/10/01 03:07:05;;;;;;;4.40;4.00;;;11.00;99.90;;;;;;947272;147;27339;-76
2023/10/01 03:09:30;;;;;;;4.37;3.97;;;11.00;99.90;;;;;;958189;145;27430;-77
2023/10/01 03:12:24;;;;;;;4.03;3.63;;;11.00;99.90;;;;;;940642;148;27336;-74
2023/10/01 03:14:26;;;;;;;4.57;4.03;;;11.00;99.90;;;;;;943303;148;27329;-77
2023/10/01 03:16:53;;;;;;;6.40;4.00;;;11.00;99.90;;;;;;938884;148;27363;-75
2023/10/01 03:19:36;;;;;;;4.17;3.77;;;11.00;99.90;;;;;;933713;147;27395;-75
2023/10/01 03:24:30;;;;;;;5.90;3.90;;;11.00;99.90;;;;;;942211;146;27428;-75
2023/10/01 03:26:59;;;;;;;5.23;4.53;;;11.00;99.90;;;;;;924294;149;27464;-77
2023/10/01 03:29:22;;;;;;;5.87;4.87;;;10.90;99.90;;;;;;923339;150;28291;-76
2023/10/01 03:31:53;;;;;;;6.43;4.60;;;10.90;99.90;;;;;;939220;146;27429;-76
2023/10/01 03:34:43;;;;;;;5.83;4.60;;;10.90;99.90;;;;;;923154;149;27311;-76
2023/10/01 03:36:42;;;;;;;5.83;4.60;;;10.90;99.90;;;;;;919862;149;27400;-76
2023/10/01 03:39:25;;;;;;;5.57;4.73;;;10.90;99.90;;;;;;939940;146;27339;-76
2023/10/01 03:41:52;;;;;;;6.47;4.60;;;10.90;99.90;;;;;;927244;149;27452;-76
2023/10/01 03:44:09;;;;;;;6.73;4.83;;;10.90;99.90;;;;;;941451;146;28281;-76
2023/10/01 03:46:42;;;;;;;6.83;4.30;;;10.90;99.90;;;;;;938812;148;27922;-76
2023/10/01 03:49:03;;;;;;;5.57;4.17;;;10.90;99.90;;;;;;924673;149;27308;-76
2023/10/01 03:51:52;;;;;;;4.33;3.87;;;10.90;99.90;;;;;;940469;146;27311;-76
2023/10/01 03:54:03;;;;;;;5.33;4.00;;;10.90;99.90;;;;;;936248;146;27371;-76
2023/10/01 03:56:29;;;;;;;5.73;3.90;;;10.90;99.90;;;;;;940053;146;27335;-76
2023/10/01 03:58:55;;;;;;;6.37;4.20;;;10.80;99.90;;;;;;922059;149;27405;-76
2023/10/01 04:01:33;;;;;;;5.23;4.20;;;10.80;99.90;;;;;;940029;148;27353;-76
2023/10/01 04:03:54;;;;;;;4.50;3.93;;;10.80;99.90;;;;;;936648;146;27436;-76
2023/10/01 04:06:21;;;;;;;4.40;3.60;;;10.80;99.90;;;;;;925520;149;27860;-76
2023/10/01 04:08:48;;;;;;;5.57;4.20;;;10.80;99.90;;;;;;941261;146;27376;-76
2023/10/01 04:11:15;;;;;;;4.07;3.63;;;10.80;99.90;;;;;;940986;146;27487;-76
2023/10/01 04:13:41;;;;;;;4.30;3.90;;;10.80;99.90;;;;;;924733;149;27490;-76
2023/10/01 04:16:14;;;;;;;6.03;4.20;;;10.80;99.90;;;;;;941777;146;27324;-76
2023/10/01 04:18:41;;;;;;;4.33;3.90;;;10.80;99.90;;;;;;923149;149;28018;-76
2023/10/01 04:23:32;;;;;;;5.30;3.90;;;10.70;99.90;;;;;;938844;146;27510;-76
2023/10/01 04:26:05;;;;;;;6.33;4.20;;;10.70;99.90;;;;;;924987;149;27910;-76
2023/10/01 04:28:25;;;;;;;5.13;4.47;;;10.70;99.90;;;;;;938759;148;27454;-74
2023/10/01 04:30:52;;;;;;;6.33;5.30;;;10.70;99.90;;;;;;939655;148;27475;-75
2023/10/01 04:33:20;;;;;;;5.00;4.30;;;10.60;99.90;;;;;;925931;149;27224;-74
2023/10/01 04:35:51;;;;;;;4.70;4.27;;;10.60;99.90;;;;;;925166;149;27377;-75
2023/10/01 04:38:12;;;;;;;5.67;4.87;;;10.60;99.90;;;;;;939986;146;27364;-75
2023/10/01 04:40:39;;;;;;;5.77;4.20;;;10.60;99.90;;;;;;923808;149;27338;-75
2023/10/01 04:43:11;;;;;;;6.10;4.60;;;10.60;99.90;;;;;;925024;150;27375;-75
2023/10/01 04:45:40;;;;;;;4.70;4.10;;;10.60;99.90;;;;;;945887;146;27476;-74
2023/10/01 04:48:15;;;;;;;6.60;4.30;;;10.60;99.90;;;;;;940090;148;27410;-73
2023/10/01 04:50:30;;;;;;;6.47;4.83;;;10.60;99.90;;;;;;939392;148;27478;-74
2023/10/01 04:53:00;;;;;;;5.33;4.27;;;10.50;99.90;;;;;;941187;148;27422;-75
2023/10/01 04:55:28;;;;;;;5.27;4.40;;;10.50;99.90;;;;;;938771;148;27389;-74
2023/10/01 04:57:53;;;;;;;6.43;4.53;;;10.50;99.90;;;;;;926906;149;27398;-77
2023/10/01 05:00:22;;;;;;;4.60;3.70;;;10.50;99.90;;;;;;942034;146;27364;-75
2023/10/01 05:02:46;;;;;;;4.37;3.93;;;10.50;99.90;;;;;;925274;149;27420;-73
2023/10/01 05:05:16;;;;;;;6.37;4.50;;;10.50;99.90;;;;;;927075;149;27440;-74
2023/10/01 05:07:39;;;;;;;6.70;4.30;;;10.50;99.90;;;;;;922978;149;27376;-75
2023/10/01 05:10:08;;;;;;;4.90;4.30;;;10.50;99.90;;;;;;940048;146;27449;-74
2023/10/01 05:12:43;;;;;;;5.40;4.27;;;10.50;99.90;;;;;;925633;149;27339;-75
2023/10/01 05:15:17;;;;;;;4.73;3.97;;;10.50;99.90;;;;;;935628;146;27406;-75
2023/10/01 05:17:33;;;;;;;4.97;4.00;;;10.50;99.90;;;;;;942562;146;27360;-73
2023/10/01 05:20:08;;;;;;;4.40;3.87;;;10.50;99.90;;;;;;938715;148;27472;-74
2023/10/01 05:22:25;;;;;;;6.57;4.07;;;10.40;99.90;;;;;;929635;152;27923;-74
2023/10/01 05:24:51;;;;;;;5.57;3.97;;;10.50;99.90;;;;;;935470;152;27426;-76
2023/10/01 05:27:22;;;;;;;6.53;3.80;;;10.50;99.90;;;;;;934747;149;27482;-77
2023/10/01 05:29:48;;;;;;;4.67;3.37;;;10.50;99.90;;;;;;925571;150;28005;-74
2023/10/01 05:32:14;;;;;;;4.53;4.13;;;10.50;99.90;;;;;;941263;148;27875;-74
2023/10/01 05:34:46;;;;;;;4.53;4.13;;;10.60;99.90;;;;;;926857;150;27432;-75
2023/10/01 05:37:12;;;;;;;5.37;3.93;;;10.60;99.90;;;;;;939627;148;27858;-76
2023/10/01 05:39:53;;;;;;;4.20;3.80;;;10.60;99.90;;;;;;938431;148;27330;-76
2023/10/01 05:42:08;;;;;;;4.27;3.87;;;10.70;99.90;;;;;;922619;150;27499;-75
2023/10/01 05:44:31;;;;;;;6.07;4.00;;;10.70;99.90;;;;;;921294;152;27310;-75
2023/10/01 05:46:56;;;;;;;5.10;4.60;;;10.80;99.90;;;;;;922078;150;27452;-75
2023/10/01 05:49:22;;;;;;;5.13;4.57;;;10.90;99.90;;;;;;935969;151;27369;-76
2023/10/01 05:51:50;;;;;;;4.33;3.90;;;11.00;99.90;;;;;;926485;152;27361;-75
2023/10/01 05:54:22;;;;;;;6.70;4.53;;;11.10;99.90;;;;;;921611;151;27470;-76
2023/10/01 05:56:48;;;;;;;5.43;4.30;;;11.30;99.90;;;;;;941640;148;27484;-76
2023/10/01 05:59:22;;;;;;;6.50;3.80;;;11.60;99.90;;;;;;927423;150;27462;-76
2023/10/01 06:01:43;;;;;;;4.93;3.53;;;11.80;99.90;;;;;;924595;151;27365;-76
2023/10/01 06:04:12;;;;;;;5.93;4.27;;;12.20;99.90;;;;;;941622;148;27420;-76
2023/10/01 06:06:38;;;;;;;4.87;3.77;;;12.50;99.90;;;;;;925593;151;27387;-76
2023/10/01 06:09:09;;;;;;;4.67;3.87;;;12.90;99.90;;;;;;942204;148;27496;-76
2023/10/01 06:11:39;;;;;;;5.13;4.23;;;13.30;99.90;;;;;;924360;153;27434;-76
2023/10/01 06:14:05;;;;;;;4.78;4.03;;;13.70;99.90;;;;;;940893;151;28467;-76
2023/10/01 06:16:37;;;;;;;4.93;3.90;;;14.10;99.90;;;;;;943335;150;27360;-76
2023/10/01 06:18:59;;;;;;;4.05;3.65;;;14.40;99.90;;;;;;931557;149;27467;-76
2023/10/01 06:21:25;;;;;;;4.37;3.33;;;14.70;99.90;;;;;;938221;148;27433;-76
2023/10/01 06:23:52;;;;;;;4.78;3.40;;;15.00;99.90;;;;;;941164;148;27298;-76
2023/10/01 06:27:09;;;;;;;4.47;3.47;;;15.30;99.90;;;;;;943463;148;27965;-76
2023/10/01 06:28:57;;;;;;;3.70;3.40;;;15.50;99.90;;;;;;929294;148;27528;-76
2023/10/01 06:31:23;;;;;;;3.72;3.42;;;15.70;99.90;;;;;;943417;148;27348;-76
2023/10/01 06:33:53;;;;;;;5.05;3.83;;;16.00;99.00;;;;;;941989;148;27492;-76
2023/10/01 06:36:16;;;;;;;4.03;3.50;;;16.20;98.20;;;;;;931631;148;27438;-76
2023/10/01 06:38:44;;;;;;;3.70;3.15;;;16.30;97.00;;;;;;943135;148;27314;-76
2023/10/01 06:41:13;;;;;;;3.70;3.40;;;16.40;96.30;;;;;;930677;148;27343;-76
2023/10/01 06:43:44;;;;;;;3.83;3.30;;;16.60;96.10;;;;;;931894;148;27298;-76
2023/10/01 06:46:03;;;;;;;4.20;3.80;;;16.70;96.60;;;;;;942035;148;27380;-76
2023/10/01 06:48:31;;;;;;;4.70;3.92;;;16.90;96.00;;;;;;946331;145;27325;-74
2023/10/01 06:50:56;;;;;;;4.67;4.00;;;17.10;94.50;;;;;;932201;148;27414;-75
2023/10/01 06:53:43;;;;;;;5.42;3.80;;;17.20;93.90;;;;;;943049;148;27378;-77
2023/10/01 06:55:52;;;;;;;3.95;3.47;;;17.40;94.20;;;;;;940357;148;28150;-75
2023/10/01 06:58:16;;;;;;;3.72;3.42;;;17.60;94.20;;;;;;940038;148;27375;-74
2023/10/01 07:00:42;;;;;;;4.17;3.77;;;17.90;95.10;;;;;;941956;149;27334;-75
2023/10/01 07:03:18;;;;;;;4.80;3.60;;;18.30;95.50;;;;;;942859;148;27368;-77
2023/10/01 07:05:47;;;;;;;5.95;3.60;;;18.70;95.70;;;;;;941389;148;27408;-74
2023/10/01 07:08:14;;;;;;;3.90;3.37;;;19.30;95.60;;;;;;941725;148;27503;-73
2023/10/01 07:10:40;;;;;;;4.00;3.55;;;19.80;94.60;;;;;;927678;150;27459;-74
2023/10/01 07:13:08;;;;;;;4.15;3.75;;;20.40;93.20;;;;;;930663;149;27287;-74
2023/10/01 07:15:39;;;;;;;4.65;3.50;;;21.00;92.40;;;;;;931056;149;27362;-75
2023/10/01 07:18:15;;;;;;;4.28;3.02;;;21.50;90.50;;;;;;945876;146;27806;-77
2023/10/01 07:20:33;;;;;;;3.98;3.33;;;22.10;87.60;;;;;;941755;146;27752;-75
2023/10/01 07:22:59;;;;;;;3.12;2.83;;;22.60;83.80;;;;;;939970;148;27396;-74
2023/10/01 07:25:28;;;;;;;3.55;3.08;;;23.10;81.50;;;;;;930527;149;27510;-74
2023/10/01 07:27:57;;;;;;;3.40;2.95;;;23.60;79.50;;;;;;928461;150;27409;-74
2023/10/01 07:30:39;;;;;;;3.65;3.20;;;24.10;77.80;;;;;;930676;150;27389;-74
2023/10/01 07:32:51;;;;;;;4.97;3.50;;;24.60;76.50;;;;;;927304;150;27481;-75
2023/10/01 07:35:17;;;;;;;3.62;3.15;;;25.00;75.60;;;;;;930184;149;27365;-76
2023/10/01 07:37:44;;;;;;;5.05;3.02;;;25.60;75.20;;;;;;930043;149;27387;-73
2023/10/01 07:40:13;;;;;;;4.28;3.12;;;26.20;74.20;;;;;;930036;149;27421;-74
2023/10/01 07:42:58;;;;;;;3.50;3.20;;;26.80;73.30;;;;;;929466;150;27405;-77
2023/10/01 07:45:06;;;;;;;3.42;3.12;;;27.40;70.90;;;;;;924661;149;28246;-75
2023/10/01 07:47:32;;;;;;;3.98;3.10;;;28.00;68.90;;;;;;929702;150;27450;-75
2023/10/01 07:49:57;;;;;;;4.00;3.40;;;28.50;67.00;;;;;;929995;150;27343;-75
2023/10/01 07:52:23;;;;;;;3.40;3.10;;;29.00;65.60;;;;;;929611;150;27483;-74
2023/10/01 07:54:50;;;;;;;5.03;3.52;;;29.50;64.10;;;;;;928441;149;26326;-75
2023/10/01 07:57:27;;;;;;;6.12;3.52;;;29.90;62.70;;;;;;929316;150;27368;-76
2023/10/01 07:59:46;;;;;;;3.55;3.20;;;30.30;61.70;;;;;;927754;149;27382;-76
2023/10/01 08:07:17;;;;;;;4.15;3.35;;;31.40;59.40;;;;;;929380;149;27485;-76
2023/10/01 08:09:51;;;;;;;4.50;3.67;;;31.70;58.80;;;;;;929702;150;27481;-77
2023/10/01 08:12:12;;;;;;;5.10;3.92;;;32.00;57.80;;;;;;927369;150;27360;-76
2023/10/01 08:14:37;;;;;;;3.67;3.37;;;32.30;57.10;;;;;;930907;150;27407;-77
2023/10/01 08:17:07;;;;;;;4.22;3.72;;;32.60;56.40;;;;;;930464;149;27550;-77
2023/10/01 08:19:44;;;;;;;4.87;3.92;;;32.80;55.80;;;;;;929055;150;27389;-77
2023/10/01 08:22:14;;;;;;;3.98;3.52;;;33.10;54.60;;;;;;930283;149;27418;-77
2023/10/01 08:24:45;;;;;;;4.35;3.62;;;33.30;54.60;;;;;;911010;151;26389;-77
2023/10/01 08:27:12;;;;;;;4.33;3.92;;;33.50;54.10;;;;;;928483;149;26238;-76
2023/10/01 08:32:22;;;;;;;4.50;4.10;;;33.80;53.00;;;;;;929043;150;27465;-77
2023/10/01 08:35:05;;;;;;;5.28;4.78;;;34.10;52.90;;;;;;926559;150;27491;-77
2023/10/01 08:37:37;;;;;;;4.78;4.28;;;34.20;52.10;;;;;;926621;150;26422;-76
2023/10/01 08:39:56;;;;;;;5.05;4.33;;;34.40;52.20;;;;;;927366;150;26389;-76
2023/10/01 08:42:28;;;;;;;6.62;3.95;;;34.60;51.70;;;;;;928285;150;26397;-76
2023/10/01 08:44:52;;;;;;;4.53;3.80;;;34.80;51.30;;;;;;926274;150;26315;-77
2023/10/01 08:47:37;;;;;;;5.03;4.37;;;35.00;51.00;;;;;;928408;150;26423;-76
2023/10/01 08:50:27;;;;;;;4.92;4.42;;;35.20;50.40;;;;;;927535;150;26406;-76
2023/10/01 08:52:55;;;;;;;6.60;4.53;;;35.40;50.10;;;;;;926700;150;26353;-76
2023/10/01 08:55:35;;;;;;;5.17;4.67;;;35.60;49.60;;;;;;928519;150;26308;-76
2023/10/01 08:57:55;;;;;;;5.30;4.45;;;35.70;48.90;;;;;;927540;150;26371;-77
2023/10/01 09:00:24;;;;;;;5.45;4.35;;;35.80;48.50;;;;;;929901;150;26309;-76
2023/10/01 09:02:55;;;;;;;5.97;4.28;;;35.80;48.40;;;;;;927823;150;26301;-77
2023/10/01 09:05:26;;;;;;;5.15;4.42;;;35.90;48.30;;;;;;928460;150;26303;-77
2023/10/01 09:08:42;;;;;;;5.78;4.70;;;36.00;48.10;;;;;;927338;150;26291;-78
2023/10/01 09:10:19;;;;;;;4.55;4.15;;;36.10;47.70;;;;;;907062;150;26271;-78
2023/10/01 09:12:48;;;;;;;4.67;4.28;;;36.20;47.40;;;;;;927414;150;26320;-78
2023/10/01 09:15:38;;;;;;;5.53;4.45;;;36.30;47.10;;;;;;928075;150;26291;-78
2023/10/01 09:17:56;;;;;;;5.67;4.15;;;36.30;46.40;;;;;;923704;150;28433;-77
2023/10/01 09:20:39;;;;;;;4.28;3.85;;;36.30;46.10;;;;;;927678;150;26417;-78
2023/10/01 09:23:05;;;;;;;4.87;3.95;;;36.20;45.70;;;;;;932672;150;26372;-77
2023/10/01 09:25:34;;;;;;;4.92;4.17;;;36.10;45.60;;;;;;925041;149;26382;-77
2023/10/01 09:27:59;;;;;;;4.72;4.22;;;35.90;45.30;;;;;;923525;149;26303;-77
2023/10/01 09:30:27;;;;;;;7.12;4.50;;;35.70;45.10;;;;;;943165;146;26340;-77
2023/10/01 09:32:51;;;;;;;5.15;3.72;;;35.50;45.00;;;;;;926433;149;26287;-77
2023/10/01 09:35:38;;;;;;;5.17;3.90;;;35.40;45.30;;;;;;927583;149;27454;-77
2023/10/01 09:38:18;;;;;;;5.08;4.20;;;35.10;45.20;;;;;;946272;146;26297;-77
2023/10/01 09:40:43;;;;;;;5.37;4.28;;;34.90;45.40;;;;;;938579;148;26284;-77
2023/10/01 09:43:18;;;;;;;5.67;4.05;;;34.70;45.30;;;;;;939434;148;27446;-77
2023/10/01 09:45:39;;;;;;;4.80;4.33;;;34.50;45.30;;;;;;937256;148;26365;-77
2023/10/01 09:48:07;;;;;;;6.15;4.28;;;34.30;45.10;;;;;;940040;148;27474;-77
2023/10/01 09:50:44;;;;;;;5.83;4.37;;;34.10;45.00;;;;;;942246;146;27081;-77
2023/10/01 09:53:13;;;;;;;4.55;4.15;;;33.80;44.80;;;;;;941270;146;27325;-77
2023/10/01 09:55:56;;;;;;;5.80;4.30;;;33.50;45.10;;;;;;923748;149;27459;-77
2023/10/01 09:58:10;;;;;;;5.62;4.33;;;33.20;45.00;;;;;;921380;149;28376;-77
2023/10/01 10:00:42;;;;;;;6.37;4.45;;;32.90;45.00;;;;;;920332;149;27488;-77
2023/10/01 10:03:11;;;;;;;6.15;4.70;;;32.60;44.90;;;;;;924393;149;27494;-77
2023/10/01 10:05:39;;;;;;;6.15;4.30;;;32.20;45.10;;;;;;940982;146;27417;-77
2023/10/01 10:08:20;;;;;;;5.75;4.58;;;31.90;45.10;;;;;;928905;149;27387;-77
2023/10/01 10:10:55;;;;;;;6.42;4.50;;;31.60;45.30;;;;;;925157;149;27794;-77
2023/10/01 10:13:45;;;;;;;5.45;4.62;;;31.20;45.40;;;;;;935515;146;27473;-77
2023/10/01 10:19:05;;;;;;;7.00;4.72;;;30.50;45.90;;;;;;943402;146;27563;-78
2023/10/01 10:21:36;;;;;;;5.75;4.47;;;30.30;46.00;;;;;;923298;149;27370;-81
2023/10/01 10:23:55;;;;;;;6.25;4.47;;;29.90;46.20;;;;;;921289;149;27442;-80
2023/10/01 10:27:33;;;;;;;5.58;4.30;;;29.60;46.40;;;;;;925167;149;27326;-79
2023/10/01 10:29:12;;;;;;;4.95;4.25;;;29.30;46.70;;;;;;942051;146;27937;-80
2023/10/01 10:31:37;;;;;;;6.33;5.30;;;29.00;47.10;;;;;;924601;149;27326;-80
2023/10/01 10:34:21;;;;;;;6.58;4.78;;;28.70;47.20;;;;;;929601;149;27414;-79
2023/10/01 10:36:36;;;;;;;5.40;3.90;;;28.50;47.60;;;;;;939576;146;27400;-80
2023/10/01 10:39:15;;;;;;;6.53;4.47;;;28.30;47.90;;;;;;943281;146;27961;-80
2023/10/01 10:41:31;;;;;;;7.28;4.92;;;28.10;48.20;;;;;;925626;149;27448;-76
2023/10/01 10:44:10;;;;;;;8.05;5.15;;;27.90;48.30;;;;;;925904;149;27388;-81
2023/10/01 10:46:59;;;;;;;6.72;4.90;;;27.80;48.60;;;;;;923140;149;27361;-76
2023/10/01 10:49:23;;;;;;;7.10;4.70;;;27.70;48.80;;;;;;935066;146;27764;-81
2023/10/01 10:51:49;;;;;;;8.68;4.90;;;27.60;49.00;;;;;;926929;149;27408;-81
2023/10/01 10:54:16;;;;;;;7.33;4.62;;;27.50;49.20;;;;;;939875;146;27304;-79
2023/10/01 10:56:44;;;;;;;7.15;4.75;;;27.40;49.30;;;;;;921411;149;27352;-81
2023/10/01 10:59:08;;;;;;;6.67;4.58;;;27.40;49.50;;;;;;939166;148;27647;-80
2023/10/01 11:01:44;;;;;;;5.75;4.20;;;27.30;49.50;;;;;;940290;148;27391;-81
2023/10/01 11:04:10;;;;;;;5.45;4.28;;;27.30;49.70;;;;;;938453;148;27438;-81
2023/10/01 11:06:40;;;;;;;6.65;4.65;;;27.20;49.80;;;;;;939222;148;27318;-81
2023/10/01 11:09:25;;;;;;;5.00;4.28;;;27.20;50.00;;;;;;939242;148;27495;-81
2023/10/01 11:11:50;;;;;;;5.92;4.08;;;27.10;50.10;;;;;;926308;150;27401;-77
2023/10/01 11:14:17;;;;;;;5.60;4.22;;;27.10;50.10;;;;;;926846;150;27458;-81
2023/10/01 11:16:46;;;;;;;4.75;4.17;;;27.00;50.20;;;;;;939824;146;27441;-81
2023/10/01 11:19:13;;;;;;;6.03;4.60;;;27.00;50.40;;;;;;926341;149;27392;-79
2023/10/01 11:22:00;;;;;;;4.75;4.10;;;26.90;50.60;;;;;;930566;149;27438;-81
2023/10/01 11:24:32;;;;;;;4.97;4.20;;;26.90;50.60;;;;;;926906;149;27529;-80
2023/10/01 11:27:21;;;;;;;5.87;4.28;;;26.90;50.60;;;;;;937010;150;27415;-77
2023/10/01 11:29:58;;;;;;;4.72;4.08;;;26.80;50.70;;;;;;945841;147;27374;-77
2023/10/01 11:32:59;;;;;;;6.17;4.20;;;26.80;50.80;;;;;;929436;151;27358;-77
2023/10/01 11:35:33;;;;;;;6.10;4.72;;;26.80;50.80;;;;;;930636;150;27425;-76
2023/10/01 11:38:08;;;;;;;5.95;4.35;;;26.70;50.90;;;;;;937315;150;27395;-76
2023/10/01 11:43:32;;;;;;;5.53;4.70;;;26.60;50.90;;;;;;946105;147;27446;-76
2023/10/01 11:46:58;;;;;;;8.00;4.90;;;26.60;51.00;;;;;;942371;147;27401;-76
2023/10/01 11:48:56;;;;;;;6.40;4.65;;;26.60;51.10;;;;;;913623;153;27474;-77
2023/10/01 11:51:08;;;;;;;8.05;4.67;;;26.60;51.10;;;;;;946165;147;27356;-77
2023/10/01 11:53:34;;;;;;;7.17;4.72;;;26.60;51.10;;;;;;929750;150;27844;-76
2023/10/01 11:56:01;;;;;;;5.78;4.08;;;26.50;51.20;;;;;;940036;147;27356;-76
2023/10/01 11:58:26;;;;;;;7.55;4.75;;;26.50;51.20;;;;;;922992;150;28488;-76
2023/10/01 12:00:52;;;;;;;6.40;4.75;;;26.50;51.30;;;;;;936181;151;27307;-76
2023/10/01 12:03:19;;;;;;;5.10;4.50;;;26.50;51.20;;;;;;938467;149;27389;-76
2023/10/01 12:05:47;;;;;;;6.65;4.83;;;26.50;51.30;;;;;;936316;149;27304;-76
2023/10/01 12:08:18;;;;;;;6.92;4.80;;;26.50;51.30;;;;;;936319;150;27445;-76
2023/10/01 12:10:40;;;;;;;6.25;4.78;;;26.50;51.30;;;;;;942734;147;27388;-76
2023/10/01 12:13:07;;;;;;;6.20;4.83;;;26.60;51.30;;;;;;945576;147;27369;-76
2023/10/01 12:15:34;;;;;;;5.62;4.58;;;26.50;51.20;;;;;;940226;147;27344;-77
2023/10/01 12:18:07;;;;;;;7.85;4.97;;;26.50;51.20;;;;;;929532;150;27404;-77
2023/10/01 12:20:30;;;;;;;6.50;5.00;;;26.50;51.30;;;;;;945058;147;27362;-76
2023/10/01 12:23:13;;;;;;;7.20;5.20;;;26.50;51.30;;;;;;929808;152;27389;-76
2023/10/01 12:26:31;;;;;;;5.47;4.37;;;26.50;51.40;;;;;;951410;145;27340;-76
2023/10/01 12:28:29;;;;;;;8.08;5.03;;;26.50;51.40;;;;;;957484;145;27358;-76
2023/10/01 12:30:58;;;;;;;7.37;5.70;;;26.50;51.40;;;;;;940217;148;27314;-76
2023/10/01 12:33:41;;;;;;;7.12;5.45;;;26.50;51.40;;;;;;959181;145;27509;-76
2023/10/01 12:36:52;;;;;;;8.33;5.35;;;26.50;51.40;;;;;;939718;148;27362;-77
2023/10/01 12:38:34;;;;;;;7.80;4.83;;;26.50;51.40;;;;;;943342;145;27332;-81
2023/10/01 12:41:01;;;;;;;6.58;5.33;;;26.50;51.40;;;;;;945536;147;27352;-81
2023/10/01 12:43:39;;;;;;;7.03;5.67;;;26.50;51.50;;;;;;961099;145;27324;-78
2023/10/01 12:46:08;;;;;;;7.15;4.83;;;26.50;50.70;;;;;;957937;147;27821;-82
2023/10/01 12:48:31;;;;;;;8.38;5.45;;;26.60;51.40;;;;;;961199;145;27268;-82
2023/10/01 12:51:00;;;;;;;7.67;5.45;;;26.60;51.40;;;;;;947177;147;27387;-82
2023/10/01 12:53:27;;;;;;;7.40;5.30;;;26.60;51.40;;;;;;961842;145;27440;-83
2023/10/01 12:55:53;;;;;;;8.28;4.92;;;26.60;51.30;;;;;;959000;145;27334;-80
2023/10/01 12:58:35;;;;;;;7.22;5.30;;;26.60;51.30;;;;;;960542;145;27449;-82
2023/10/01 13:00:46;;;;;;;6.87;5.33;;;26.60;51.40;;;;;;961508;145;27367;-82
2023/10/01 13:03:17;;;;;;;6.53;5.35;;;26.60;51.40;;;;;;943228;148;27375;-78
2023/10/01 13:05:43;;;;;;;9.18;5.42;;;26.60;51.30;;;;;;941402;148;27312;-76
2023/10/01 13:08:07;;;;;;;10.88;5.78;;;26.60;51.30;;;;;;944523;147;27467;-82
2023/10/01 13:10:37;;;;;;;7.33;5.53;;;26.50;51.30;;;;;;942284;147;27379;-80
2023/10/01 13:13:07;;;;;;;6.53;5.37;;;26.50;51.30;;;;;;944991;147;27490;-77
2023/10/01 13:15:41;;;;;;;7.42;5.35;;;26.60;51.30;;;;;;963187;145;27325;-78
2023/10/01 13:18:04;;;;;;;7.40;5.28;;;26.50;51.30;;;;;;944218;147;28039;-82